createdAt,value
2022-10-30T00:04:30.060Z,18.70
2022-10-30T00:14:29.987Z,18.66
2022-10-30T00:24:30.049Z,18.62
2022-10-30T00:34:30.013Z,18.60
2022-10-30T00:44:30.038Z,18.55
2022-10-30T00:54:30.112Z,18.49
2022-10-30T01:04:30.459Z,18.42
2022-10-30T01:14:30.166Z,18.33
2022-10-30T01:24:30.179Z,18.24
2022-10-30T01:34:30.236Z,18.05
2022-10-30T01:44:30.220Z,17.80
2022-10-30T01:54:30.260Z,17.60
2022-10-30T02:04:30.271Z,17.48
2022-10-30T02:14:30.294Z,17.41
2022-10-30T02:24:30.178Z,17.37
2022-10-30T02:34:31.092Z,17.32
2022-10-30T02:44:30.290Z,17.21
2022-10-30T02:54:30.295Z,17.04
2022-10-30T03:04:30.422Z,16.83
2022-10-30T03:14:30.250Z,16.68
2022-10-30T03:24:30.286Z,16.49
2022-10-30T03:34:32.152Z,16.20
2022-10-30T03:44:31.367Z,15.87
2022-10-30T03:54:31.694Z,15.54
2022-10-30T04:04:50.910Z,15.27
2022-10-30T04:14:51.526Z,15.01
2022-10-30T04:24:51.712Z,14.81
2022-10-30T04:34:51.555Z,14.62
2022-10-30T04:44:51.675Z,14.43
2022-10-30T04:54:51.616Z,14.26
2022-10-30T05:04:51.489Z,14.09
2022-10-30T05:14:52.190Z,13.93
2022-10-30T05:24:51.919Z,13.80
2022-10-30T05:34:53.327Z,13.78
2022-10-30T05:45:00.878Z,13.85
2022-10-30T05:55:10.545Z,13.93
2022-10-30T06:05:13.984Z,14.03
2022-10-30T06:15:13.757Z,14.12
2022-10-30T06:25:15.360Z,14.13
2022-10-30T06:35:15.245Z,14.02
2022-10-30T06:45:14.993Z,13.90
2022-10-30T06:55:22.434Z,13.81
2022-10-30T07:05:21.803Z,13.81
2022-10-30T07:15:29.510Z,13.98
2022-10-30T07:25:31.535Z,14.31
2022-10-30T07:35:33.533Z,14.74
2022-10-30T07:45:40.656Z,15.20
2022-10-30T07:55:54.611Z,15.67
2022-10-30T08:05:56.653Z,16.11
2022-10-30T08:15:56.905Z,16.50
2022-10-30T08:25:57.083Z,16.94
2022-10-30T08:35:56.965Z,17.47
2022-10-30T08:45:56.977Z,18.13
2022-10-30T08:56:01.541Z,19.18
2022-10-30T09:06:19.500Z,20.78
2022-10-30T09:16:18.895Z,22.34
2022-10-30T09:26:21.020Z,23.20
2022-10-30T09:36:22.287Z,23.28
2022-10-30T09:46:21.863Z,23.19
2022-10-30T09:56:21.852Z,23.03
2022-10-30T10:06:38.978Z,22.86
2022-10-30T10:16:38.804Z,22.63
2022-10-30T10:26:38.927Z,22.38
2022-10-30T10:36:38.889Z,22.17
2022-10-30T10:39:07.637Z,21.32
2022-10-30T10:49:07.741Z,21.64
2022-10-30T10:59:07.645Z,21.95
2022-10-30T11:09:07.656Z,22.10
2022-10-30T11:19:07.667Z,22.18
2022-10-30T11:29:07.715Z,22.26
2022-10-30T11:39:07.788Z,22.34
2022-10-30T11:49:07.744Z,22.45
2022-10-30T11:59:07.745Z,22.62
2022-10-30T12:09:07.883Z,22.81
2022-10-30T12:19:07.871Z,22.93
2022-10-30T12:29:07.841Z,23.02
2022-10-30T12:39:07.787Z,23.16
2022-10-30T12:49:07.888Z,23.39
2022-10-30T12:59:07.832Z,23.67
2022-10-30T13:09:07.924Z,23.98
2022-10-30T13:19:07.856Z,24.26
2022-10-30T13:29:07.875Z,24.44
2022-10-30T13:39:07.930Z,24.47
2022-10-30T13:49:07.891Z,24.38
2022-10-30T13:59:08.063Z,24.26
2022-10-30T14:09:08.077Z,24.16
2022-10-30T14:19:07.993Z,24.06
2022-10-30T14:29:08.073Z,23.90
2022-10-30T14:39:07.974Z,23.67
2022-10-30T14:49:08.013Z,23.40
2022-10-30T14:59:08.015Z,23.12
2022-10-30T15:09:08.033Z,22.79
2022-10-30T15:19:08.119Z,22.40
2022-10-30T15:29:08.168Z,22.04
2022-10-30T15:39:08.158Z,21.71
2022-10-30T15:49:08.075Z,21.37
2022-10-30T15:59:08.089Z,21.02
2022-10-30T16:09:08.150Z,20.63
2022-10-30T16:19:08.152Z,20.22
2022-10-30T16:29:08.235Z,19.80
2022-10-30T16:39:08.300Z,19.42
2022-10-30T16:49:08.261Z,19.08
2022-10-30T16:59:08.221Z,18.77
2022-10-30T17:09:08.202Z,18.52
2022-10-30T17:19:08.204Z,18.30
2022-10-30T17:29:08.311Z,18.12
2022-10-30T17:39:08.218Z,17.95
2022-10-30T17:49:08.267Z,17.79
2022-10-30T17:59:08.224Z,17.64
2022-10-30T18:09:08.275Z,17.50
2022-10-30T18:19:08.264Z,17.37
2022-10-30T18:29:08.300Z,17.20
2022-10-30T18:39:08.305Z,17.00
2022-10-30T18:49:08.316Z,16.79
2022-10-30T18:59:08.327Z,16.61
2022-10-30T19:09:08.445Z,16.50
2022-10-30T19:19:11.692Z,16.47
2022-10-30T19:29:11.390Z,16.45
2022-10-30T19:39:11.394Z,16.39
2022-10-30T19:49:11.424Z,16.26
2022-10-30T19:59:11.466Z,16.06
2022-10-30T20:09:11.441Z,15.84
2022-10-30T20:19:11.502Z,15.65
2022-10-30T20:29:11.488Z,15.50
2022-10-30T20:39:11.513Z,15.38
2022-10-30T20:49:17.829Z,15.26
2022-10-30T20:59:12.512Z,15.11
2022-10-30T21:09:12.531Z,14.91
2022-10-30T21:19:12.507Z,14.69
2022-10-30T21:29:12.641Z,14.50
2022-10-30T21:39:12.573Z,14.35
2022-10-30T21:49:12.670Z,14.18
2022-10-30T21:59:12.577Z,14.01
2022-10-30T22:09:12.587Z,13.85
2022-10-30T22:19:12.575Z,13.74
2022-10-30T22:29:12.621Z,13.71
2022-10-30T22:39:12.708Z,13.79
2022-10-30T22:49:12.635Z,13.88
2022-10-30T22:59:12.747Z,13.92
2022-10-30T23:09:12.720Z,13.90
2022-10-30T23:19:12.773Z,13.87
2022-10-30T23:29:12.711Z,13.84
2022-10-30T23:39:12.689Z,13.80
2022-10-30T23:49:12.802Z,13.79
2022-10-30T23:59:12.752Z,13.83
